地図

経路データ

SID SEASON NUMBER BASIN SUBBASIN NAME ISO_TIME NATURE LAT LON WMO_WIND WMO_PRES WMO_AGENCY TRACK_TYPE DIST2LAND LANDFALL IFLAG USA_AGENCY USA_ATCF_ID USA_LAT USA_LON USA_RECORD USA_STATUS USA_WIND USA_PRES USA_SSHS USA_R34_NE USA_R34_SE USA_R34_SW USA_R34_NW USA_R50_NE USA_R50_SE USA_R50_SW USA_R50_NW USA_R64_NE USA_R64_SE USA_R64_SW USA_R64_NW USA_POCI USA_ROCI USA_RMW USA_EYE TOKYO_LAT TOKYO_LON TOKYO_GRADE TOKYO_WIND TOKYO_PRES TOKYO_R50_DIR TOKYO_R50_LONG TOKYO_R50_SHORT TOKYO_R30_DIR TOKYO_R30_LONG TOKYO_R30_SHORT TOKYO_LAND CMA_LAT CMA_LON CMA_CAT CMA_WIND CMA_PRES HKO_LAT HKO_LON HKO_CAT HKO_WIND HKO_PRES NEWDELHI_LAT NEWDELHI_LON NEWDELHI_GRADE NEWDELHI_WIND NEWDELHI_PRES NEWDELHI_CI NEWDELHI_DP NEWDELHI_POCI REUNION_LAT REUNION_LON REUNION_TYPE REUNION_WIND REUNION_PRES REUNION_TNUM REUNION_CI REUNION_RMW REUNION_R34_NE REUNION_R34_SE REUNION_R34_SW REUNION_R34_NW REUNION_R50_NE REUNION_R50_SE REUNION_R50_SW REUNION_R50_NW REUNION_R64_NE REUNION_R64_SE REUNION_R64_SW REUNION_R64_NW BOM_LAT BOM_LON BOM_TYPE BOM_WIND BOM_PRES BOM_TNUM BOM_CI BOM_RMW BOM_R34_NE BOM_R34_SE BOM_R34_SW BOM_R34_NW BOM_R50_NE BOM_R50_SE BOM_R50_SW BOM_R50_NW BOM_R64_NE BOM_R64_SE BOM_R64_SW BOM_R64_NW BOM_ROCI BOM_POCI BOM_EYE BOM_POS_METHOD BOM_PRES_METHOD NADI_LAT NADI_LON NADI_CAT NADI_WIND NADI_PRES WELLINGTON_LAT WELLINGTON_LON WELLINGTON_WIND WELLINGTON_PRES DS824_LAT DS824_LON DS824_STAGE DS824_WIND DS824_PRES TD9636_LAT TD9636_LON TD9636_STAGE TD9636_WIND TD9636_PRES TD9635_LAT TD9635_LON TD9635_WIND TD9635_PRES TD9635_ROCI NEUMANN_LAT NEUMANN_LON NEUMANN_CLASS NEUMANN_WIND NEUMANN_PRES MLC_LAT MLC_LON MLC_CLASS MLC_WIND MLC_PRES USA_GUST BOM_GUST BOM_GUST_PER REUNION_GUST REUNION_GUST_PER USA_SEAHGT USA_SEARAD_NE USA_SEARAD_SE USA_SEARAD_SW USA_SEARAD_NW STORM_SPEED STORM_DIR
1941343N09092 1941 70 NI BB NOT_NAMED 1941-12-09 00:00:00 TS 8.80000 91.8000 main 519 519 _________O____ -1 8.80000 91.8000 TC 30 2 345
1941343N09092 1941 70 NI BB NOT_NAMED 1941-12-09 03:00:00 TS 8.90834 91.7667 main 526 526 _________PO___ -1 8.96250 91.7500 TC 30 8.80000 91.8000 1 3 342
1941343N09092 1941 70 NI BB NOT_NAMED 1941-12-09 06:00:00 TS 9.03814 91.7151 main 542 542 _________OP___ -1 9.10000 91.7000 TC 30 8.94534 91.7377 1 3 337
1941343N09092 1941 70 NI BB NOT_NAMED 1941-12-09 09:00:00 TS 9.14966 91.6630 main 550 550 _________PP___ -1 9.20000 91.6500 TC 30 9.08254 91.6802 1 2 336
1941343N09092 1941 70 NI BB NOT_NAMED 1941-12-09 12:00:00 TS 9.25174 91.6163 main 574 574 _________OP___ -1 9.30000 91.6000 TC 30 9.20347 91.6327 1 2 339
1941343N09092 1941 70 NI BB NOT_NAMED 1941-12-09 15:00:00 TS 9.37500 91.5750 main 582 582 _________PO___ -1 9.45000 91.5500 TC 30 9.30000 91.6000 1 2 342
1941343N09092 1941 70 NI BB NOT_NAMED 1941-12-09 18:00:00 TS 9.48607 91.5411 main 597 597 _________OP___ -1 9.60000 91.5000 TC 30 9.37213 91.5822 1 2 344
1941343N09092 1941 70 NI BB NOT_NAMED 1941-12-09 21:00:00 TS 9.55369 91.5197 main 606 606 _________PP___ -1 9.65497 91.4799 TC 30 9.45240 91.5595 1 2 336
1941343N09092 1941 70 NI BB NOT_NAMED 1941-12-10 00:00:00 TS 9.69074 91.4535 main 614 614 _________OP___ -1 9.80000 91.4000 TC 30 9.58147 91.5070 1 5 333
1941343N09092 1941 70 NI BB NOT_NAMED 1941-12-10 03:00:00 TS 9.99877 91.2901 main 654 654 _________PO___ -1 10.1975 91.1801 TC 31 9.80000 91.4000 1 8 333
1941343N09092 1941 70 NI BB NOT_NAMED 1941-12-10 06:00:00 TS 10.4405 91.0620 main 702 666 _________OP___ -1 10.7000 90.9000 TC 32 10.1809 91.2240 1 10 333
1941343N09092 1941 70 NI BB NOT_NAMED 1941-12-10 09:00:00 TS 10.9062 90.8239 main 672 650 _________PP___ -1 11.1650 90.6574 TC 33 10.6475 90.9904 1 11 332
1941343N09092 1941 70 NI BB NOT_NAMED 1941-12-10 12:00:00 TS 11.3701 90.5557 main 641 629 _________OP___ -1 11.6000 90.4000 TC 34 11.1403 90.7115 1 10 328
1941343N09092 1941 70 NI BB NOT_NAMED 1941-12-10 15:00:00 TS 11.7900 90.2612 main 629 629 _________PO___ -1 11.9799 90.1224 TC 36 11.6000 90.4000 2 10 322
1941343N09092 1941 70 NI BB NOT_NAMED 1941-12-10 18:00:00 TS 12.1378 89.9414 main 637 629 _________OP___ -1 12.3000 89.8000 TC 39 11.9756 90.0829 2 9 314
1941343N09092 1941 70 NI BB NOT_NAMED 1941-12-10 21:00:00 TS 12.4425 89.5726 main 639 632 _________PP___ -1 12.5800 89.4075 TC 42 12.3049 89.7376 2 9 307
1941343N09092 1941 70 NI BB NOT_NAMED 1941-12-11 00:00:00 TS 12.6909 89.1868 main 653 653 _________OP___ -1 12.8000 89.0000 TC 45 12.5818 89.3735 2 9 302
1941343N09092 1941 70 NI BB NOT_NAMED 1941-12-11 03:00:00 TS 12.8899 88.8250 main 677 677 _________PO___ -1 12.9799 88.6499 TC 45 12.8000 89.0000 3 8 296
1941343N09092 1941 70 NI BB NOT_NAMED 1941-12-11 06:00:00 TS 13.0367 88.4720 main 699 699 _________OP___ -1 13.1000 88.3000 TC 45 12.9735 88.6441 3 8 289
1941343N09092 1941 70 NI BB NOT_NAMED 1941-12-11 09:00:00 TS 13.1310 88.0973 main 722 688 _________PP___ -1 13.1724 87.9150 TC 45 13.0896 88.2797 3 8 281
1941343N09092 1941 70 NI BB NOT_NAMED 1941-12-11 12:00:00 TS 13.1805 87.7002 main 688 658 _________OP___ -1 13.2000 87.5000 TC 45 13.1609 87.9004 3 8 275
1941343N09092 1941 70 NI BB NOT_NAMED 1941-12-11 15:00:00 TS 13.2037 87.2787 main 658 623 _________PO___ -1 13.2075 87.0575 TC 45 13.2000 87.5000 3 8 272
1941343N09092 1941 70 NI BB NOT_NAMED 1941-12-11 18:00:00 TS 13.2143 86.8397 main 615 582 _________OP___ -1 13.2000 86.6000 TC 45 13.2286 87.0794 3 9 271
1941343N09092 1941 70 NI BB NOT_NAMED 1941-12-11 21:00:00 TS 13.2148 86.3973 main 582 550 _________PP___ -1 13.1999 86.1575 TC 45 13.2297 86.6372 3 9 270
1941343N09092 1941 70 NI BB NOT_NAMED 1941-12-12 00:00:00 TS 13.2080 85.9382 main 542 512 _________OP___ -1 13.2000 85.7000 TC 45 13.2160 86.1763 3 9 269
1941343N09092 1941 70 NI BB NOT_NAMED 1941-12-12 03:00:00 TS 13.2000 85.4538 main 512 478 _________PO___ -1 13.1999 85.2075 TC 45 13.2000 85.7000 3 10 270
1941343N09092 1941 70 NI BB NOT_NAMED 1941-12-12 06:00:00 TS 13.1999 84.9612 main 478 448 _________OP___ -1 13.2000 84.7000 TC 45 13.1997 85.2225 3 10 270
1941343N09092 1941 70 NI BB NOT_NAMED 1941-12-12 09:00:00 TS 13.1997 84.4687 main 448 400 _________PP___ -1 13.1999 84.2075 TC 45 13.1996 84.7300 3 10 270
1941343N09092 1941 70 NI BB NOT_NAMED 1941-12-12 12:00:00 TS 13.1998 83.9612 main 400 346 _________OP___ -1 13.2000 83.7000 TC 45 13.1997 84.2225 3 10 270
1941343N09092 1941 70 NI BB NOT_NAMED 1941-12-12 15:00:00 TS 13.2000 83.4287 main 335 281 _________PO___ -1 13.1999 83.1575 TC 41 13.2000 83.7000 3 10 270
1941343N09092 1941 70 NI BB NOT_NAMED 1941-12-12 18:00:00 TS 13.2057 82.9005 main 281 227 _________OP___ -1 13.2000 82.6000 TC 37 13.2114 83.2011 3 10 271
1941343N09092 1941 70 NI BB NOT_NAMED 1941-12-12 21:00:00 TS 13.2142 82.3851 main 227 162 _________PP___ -1 13.2071 82.0875 TC 33 13.2212 82.6827 3 11 270
1941343N09092 1941 70 NI BB NOT_NAMED 1941-12-13 00:00:00 TS 13.2103 81.8115 main 162 98 _________OP___ -1 13.2000 81.5000 TC 30 13.2205 82.1230 3 12 269
1941343N09092 1941 70 NI BB NOT_NAMED 1941-12-13 03:00:00 TS 13.1826 81.1150 main 87 21 _________PO___ -1 13.1651 80.7300 TC 30 13.2000 81.5000 1 14 266
1941343N09092 1941 70 NI BB NOT_NAMED 1941-12-13 06:00:00 TS 13.1213 80.3467 main 10 0 _________OP___ -1 13.1000 79.9000 TC 30 13.1426 80.7934 1 15 264
1941343N09092 1941 70 NI BB NOT_NAMED 1941-12-13 09:00:00 TS 13.0323 79.5872 main 0 0 _________PP___ -1 12.9997 79.1499 TC 30 13.0650 80.0244 1 15 263
1941343N09092 1941 70 NI BB NOT_NAMED 1941-12-13 12:00:00 TS 12.9399 78.8092 main 0 0 _________OP___ -1 12.9000 78.4000 TC 30 12.9799 79.2183 1 16 264
1941343N09092 1941 70 NI BB NOT_NAMED 1941-12-13 15:00:00 TS 12.8712 78.0038 main 0 0 _________PO___ -1 12.8423 77.6076 TC 30 12.9000 78.4000 1 16 266
1941343N09092 1941 70 NI AS NOT_NAMED 1941-12-13 18:00:00 TS 12.8254 77.1896 main 0 0 _________OP___ -1 12.8000 76.8000 TC 30 12.8509 77.5792 1 16 267
1941343N09092 1941 70 NI AS NOT_NAMED 1941-12-13 21:00:00 TS 12.7825 76.3666 main 0 0 _________PP___ -1 12.7574 75.9776 TC 30 12.8075 76.7556 1 16 267
1941343N09092 1941 70 NI AS NOT_NAMED 1941-12-14 00:00:00 TS 12.7302 75.5771 main 0 0 _________OP___ -1 12.7000 75.2000 TC 30 12.7604 75.9541 1 15 265
1941343N09092 1941 70 NI AS NOT_NAMED 1941-12-14 03:00:00 TS 12.6536 74.8600 main 0 0 _________PO___ -1 12.6072 74.5200 TC 30 12.7000 75.2000 1 13 263
1941343N09092 1941 70 NI AS NOT_NAMED 1941-12-14 06:00:00 TS 12.5607 74.2125 main 68 68 _________OP___ -1 12.5000 73.9000 TC 30 12.6214 74.5249 1 12 261
1941343N09092 1941 70 NI AS NOT_NAMED 1941-12-14 09:00:00 TS 12.4679 73.5990 main 134 134 _________PP___ -1 12.4073 73.3001 TC 30 12.5286 73.8979 1 12 260
1941343N09092 1941 70 NI AS NOT_NAMED 1941-12-14 12:00:00 TS 12.3608 72.9984 main 200 200 _________OP___ -1 12.3000 72.7000 TC 30 12.4216 73.2969 1 12 259
1941343N09092 1941 70 NI AS NOT_NAMED 1941-12-14 15:00:00 TS 12.2287 72.3750 main 269 269 _________PO___ -1 12.1575 72.0500 TC 30 12.3000 72.7000 1 12 257
1941343N09092 1941 70 NI AS NOT_NAMED 1941-12-14 18:00:00 TS 12.0938 71.7942 main 335 335 _________OP___ -1 12.0000 71.4000 TC 30 12.1641 72.0899 1 12 256
1941343N09092 1941 70 NI AS NOT_NAMED 1941-12-14 21:00:00 TS 11.9490 71.1950 main 404 404 _________PP___ -1 11.8477 70.7874 TC 30 12.0165 71.4668 1 12 256
1941343N09092 1941 70 NI AS NOT_NAMED 1941-12-15 00:00:00 TS 11.8071 70.6235 main 470 470 _________OP___ -1 11.7000 70.2000 TC 30 11.8607 70.8353 1 10 256
1941343N09092 1941 70 NI AS NOT_NAMED 1941-12-15 03:00:00 NR 11.7000 70.2000 main 515 __________O___ -1 TC 11.7000 70.2000 1 9 256

IBTrACS Databaseについて

本データベースは、米国NOAAが公開する1842年以降の世界の熱帯低気圧のベストトラックデータアーカイブInternational Best Track Archive for Climate Stewardship (IBTrACS)を、ウェブで閲覧しやすい形式に変換したものです。

最終更新日:2021-11-26